createdAt,value
2022-12-04T00:13:38.748Z,10.27
2022-12-04T00:16:09.793Z,10.00
2022-12-04T00:18:38.850Z,9.93
2022-12-04T00:27:43.792Z,9.98
2022-12-04T00:33:22.982Z,10.35
2022-12-04T00:35:59.414Z,9.93
2022-12-04T00:38:26.640Z,10.60
2022-12-04T00:41:00.703Z,9.65
2022-12-04T00:46:55.652Z,9.73
2022-12-04T00:55:32.785Z,9.98
2022-12-04T00:58:12.341Z,10.77
2022-12-04T01:03:39.843Z,10.70
2022-12-04T01:06:29.690Z,11.25
2022-12-04T01:09:00.616Z,10.40
2022-12-04T01:38:15.187Z,11.63
2022-12-04T01:40:50.736Z,11.43
2022-12-04T01:43:18.981Z,11.40
2022-12-04T01:58:07.586Z,11.82
2022-12-04T02:03:40.597Z,11.27
2022-12-04T02:06:12.628Z,11.35
2022-12-04T02:08:42.525Z,11.50
2022-12-04T02:20:30.156Z,11.77
2022-12-04T02:26:46.891Z,11.63
2022-12-04T02:29:39.633Z,10.57
2022-12-04T02:57:03.765Z,12.25
2022-12-04T02:59:59.963Z,12.45
2022-12-04T03:02:36.336Z,11.85
2022-12-04T03:15:25.181Z,12.85
2022-12-04T03:23:58.089Z,12.27
2022-12-04T04:01:10.587Z,13.32
2022-12-04T04:06:51.905Z,13.13
2022-12-04T04:12:18.752Z,12.30
2022-12-04T05:53:28.112Z,11.63
2022-12-04T05:58:43.858Z,10.65
2022-12-04T06:02:22.623Z,12.00
2022-12-04T06:14:01.202Z,12.32
2022-12-04T06:36:17.637Z,11.63
2022-12-04T07:08:11.767Z,11.48
2022-12-04T07:13:53.177Z,10.82
2022-12-04T07:19:30.935Z,10.50
2022-12-04T07:30:39.153Z,10.75
2022-12-04T07:36:09.231Z,11.55
2022-12-04T07:38:35.651Z,11.68
2022-12-04T07:41:04.233Z,11.43
2022-12-04T07:43:31.237Z,10.48
2022-12-04T07:45:58.281Z,10.98
2022-12-04T07:48:30.228Z,11.43
2022-12-04T07:51:04.640Z,11.73
2022-12-04T07:53:31.534Z,11.50
2022-12-04T07:55:58.101Z,12.27
2022-12-04T07:58:24.550Z,11.43
2022-12-04T08:00:51.048Z,12.02
2022-12-04T08:03:17.511Z,12.48
2022-12-04T08:05:43.912Z,11.75
2022-12-04T08:08:10.424Z,11.98
2022-12-04T08:10:40.293Z,11.27
2022-12-04T08:13:07.042Z,11.55
2022-12-04T08:15:34.807Z,11.13
2022-12-04T08:18:01.253Z,10.80
2022-12-04T08:20:27.746Z,12.10
2022-12-04T08:22:54.157Z,11.90
2022-12-04T08:25:20.603Z,12.32
2022-12-04T08:27:47.908Z,13.35
2022-12-04T08:30:14.427Z,12.80
2022-12-04T08:32:40.941Z,13.32
2022-12-04T08:35:07.727Z,13.48
2022-12-04T08:37:34.169Z,13.18
2022-12-04T08:40:00.642Z,13.65
2022-12-04T08:42:27.121Z,12.43
2022-12-04T08:44:53.628Z,13.18
2022-12-04T08:47:20.108Z,12.80
2022-12-04T08:49:46.505Z,14.18
2022-12-04T08:52:12.920Z,12.02
2022-12-04T08:54:39.357Z,13.10
2022-12-04T08:57:05.800Z,12.07
2022-12-04T08:59:32.364Z,12.88
2022-12-04T09:01:58.880Z,11.32
2022-12-04T09:04:25.473Z,13.77
2022-12-04T09:06:51.949Z,12.45
2022-12-04T09:09:18.366Z,12.48
2022-12-04T09:11:46.102Z,13.02
2022-12-04T09:14:12.633Z,12.95
2022-12-04T09:16:39.058Z,14.27
2022-12-04T09:19:05.608Z,13.63
2022-12-04T09:21:32.055Z,13.73
2022-12-04T09:23:59.468Z,14.25
2022-12-04T09:26:29.177Z,13.98
2022-12-04T09:28:56.581Z,15.18
2022-12-04T09:31:24.099Z,14.10
2022-12-04T09:33:51.222Z,14.95
2022-12-04T09:36:17.809Z,14.50
2022-12-04T09:38:54.194Z,14.60
2022-12-04T09:41:49.642Z,14.45
2022-12-04T09:44:50.138Z,14.75
2022-12-04T09:47:24.921Z,14.85
2022-12-04T09:50:00.351Z,14.98
2022-12-04T09:52:56.066Z,16.65
2022-12-04T09:55:24.131Z,14.13
2022-12-04T09:57:55.853Z,16.05
2022-12-04T10:00:26.072Z,18.90
2022-12-04T10:02:57.656Z,16.95
2022-12-04T10:05:46.342Z,15.10
2022-12-04T10:08:21.484Z,15.57
2022-12-04T10:10:57.481Z,15.85
2022-12-04T10:13:23.835Z,15.65
2022-12-04T10:16:08.948Z,16.23
2022-12-04T10:18:42.195Z,17.33
2022-12-04T10:21:30.095Z,16.55
2022-12-04T10:24:10.901Z,16.15
2022-12-04T10:26:43.340Z,16.02
2022-12-04T10:29:18.596Z,16.05
2022-12-04T10:31:46.246Z,16.38
2022-12-04T10:34:18.176Z,16.92
2022-12-04T10:36:50.555Z,15.50
2022-12-04T10:39:25.462Z,16.20
2022-12-04T10:42:05.405Z,15.77
2022-12-04T10:44:32.026Z,17.35
2022-12-04T10:47:01.090Z,16.58
2022-12-04T10:49:29.553Z,16.33
2022-12-04T10:51:56.431Z,15.80
2022-12-04T10:54:32.895Z,16.88
2022-12-04T10:57:07.849Z,17.58
2022-12-04T10:59:34.809Z,18.17
2022-12-04T11:02:12.370Z,16.88
2022-12-04T11:04:40.175Z,16.85
2022-12-04T11:07:08.834Z,16.40
2022-12-04T11:09:35.415Z,15.45
2022-12-04T11:12:09.644Z,17.25
2022-12-04T11:14:36.240Z,16.40
2022-12-04T11:17:06.085Z,17.15
2022-12-04T11:19:36.072Z,17.15
2022-12-04T11:22:16.711Z,19.52
2022-12-04T11:24:50.115Z,17.92
2022-12-04T11:27:22.961Z,16.33
2022-12-04T11:29:50.088Z,17.05
2022-12-04T11:32:29.408Z,17.75
2022-12-04T11:37:34.538Z,16.23
2022-12-04T11:40:04.138Z,16.90
2022-12-04T11:42:31.673Z,16.98
2022-12-04T11:45:19.857Z,16.52
2022-12-04T11:48:01.883Z,17.35
2022-12-04T11:50:57.823Z,16.38
2022-12-04T11:53:36.823Z,17.10
2022-12-04T11:56:26.893Z,17.75
2022-12-04T11:58:56.337Z,17.45
2022-12-04T12:01:38.081Z,18.63
2022-12-04T12:04:34.052Z,17.02
2022-12-04T12:07:33.615Z,16.98
2022-12-04T12:10:11.764Z,19.90
2022-12-04T12:12:54.771Z,19.00
2022-12-04T12:15:40.982Z,17.33
2022-12-04T12:18:20.977Z,17.75
2022-12-04T12:20:58.591Z,18.27
2022-12-04T12:23:50.130Z,19.23
2022-12-04T12:26:18.246Z,18.02
2022-12-04T12:28:53.774Z,20.20
2022-12-04T12:31:42.204Z,20.88
2022-12-04T12:34:13.220Z,18.80
2022-12-04T12:36:44.168Z,20.08
2022-12-04T12:39:56.865Z,20.52
2022-12-04T12:42:27.240Z,20.85
2022-12-04T12:45:04.907Z,19.88
2022-12-04T12:47:38.947Z,22.40
2022-12-04T12:50:13.169Z,22.20
2022-12-04T12:52:53.744Z,21.73
2022-12-04T12:55:24.802Z,21.42
2022-12-04T12:58:09.524Z,19.80
2022-12-04T13:00:48.983Z,18.98
2022-12-04T13:03:35.701Z,19.73
2022-12-04T13:06:06.321Z,20.00
2022-12-04T13:09:11.616Z,18.08
2022-12-04T13:11:38.849Z,19.15
2022-12-04T13:14:05.464Z,18.55
2022-12-04T13:16:45.000Z,18.67
2022-12-04T13:19:31.438Z,20.50
2022-12-04T13:22:18.856Z,18.58
2022-12-04T13:24:45.195Z,19.50
2022-12-04T13:27:27.376Z,21.38
2022-12-04T13:30:03.297Z,18.52
2022-12-04T13:33:06.239Z,21.23
2022-12-04T13:35:55.534Z,22.55
2022-12-04T13:40:57.374Z,20.60
2022-12-04T13:43:34.197Z,18.67
2022-12-04T13:46:03.470Z,21.95
2022-12-04T13:51:45.548Z,20.77
2022-12-04T13:54:11.940Z,20.50
2022-12-04T13:56:46.699Z,22.33
2022-12-04T13:59:28.383Z,20.92
2022-12-04T14:01:57.143Z,23.40
2022-12-04T14:04:46.480Z,22.05
2022-12-04T14:07:42.916Z,18.00
2022-12-04T14:10:15.166Z,19.77
2022-12-04T14:12:57.302Z,18.45
2022-12-04T14:15:26.246Z,21.08
2022-12-04T14:18:00.352Z,19.52
2022-12-04T14:20:29.743Z,19.35
2022-12-04T14:25:36.631Z,18.35
2022-12-04T14:28:14.239Z,17.98
2022-12-04T14:30:42.380Z,20.60
2022-12-04T14:33:22.357Z,18.05
2022-12-04T14:36:17.916Z,17.10
2022-12-04T14:38:46.380Z,17.38
2022-12-04T14:41:12.892Z,17.47
2022-12-04T14:43:40.978Z,16.73
2022-12-04T14:46:35.104Z,17.00
2022-12-04T14:49:14.733Z,18.33
2022-12-04T14:51:54.877Z,17.30
2022-12-04T14:54:31.222Z,16.83
2022-12-04T14:57:12.868Z,15.98
2022-12-04T14:59:47.673Z,15.98
2022-12-04T15:02:19.749Z,16.95
2022-12-04T15:04:47.659Z,19.52
2022-12-04T15:07:29.703Z,20.10
2022-12-04T15:10:19.939Z,34.65
2022-12-04T15:12:54.135Z,30.35
2022-12-04T15:15:28.771Z,18.60
2022-12-04T15:18:04.687Z,18.33
2022-12-04T15:20:42.598Z,21.05
2022-12-04T15:23:13.926Z,17.88
2022-12-04T15:25:44.510Z,17.60
2022-12-04T15:28:17.515Z,16.38
2022-12-04T15:30:45.135Z,16.90
2022-12-04T15:33:20.903Z,16.65
2022-12-04T15:35:52.630Z,18.17
2022-12-04T15:38:19.304Z,17.92
2022-12-04T15:40:54.805Z,18.90
2022-12-04T15:43:27.477Z,19.45
2022-12-04T15:45:54.124Z,19.48
2022-12-04T15:48:29.209Z,19.00
2022-12-04T15:51:01.347Z,18.77
2022-12-04T15:53:30.424Z,18.33
2022-12-04T15:56:02.687Z,18.50
2022-12-04T15:58:31.761Z,17.52
2022-12-04T16:01:04.829Z,18.08
2022-12-04T16:03:43.633Z,16.15
2022-12-04T16:06:15.724Z,19.02
2022-12-04T16:08:44.236Z,18.83
2022-12-04T16:11:20.177Z,19.67
2022-12-04T16:13:48.695Z,19.45
2022-12-04T16:16:21.308Z,18.90
2022-12-04T16:18:48.164Z,18.75
2022-12-04T16:21:17.114Z,20.00
2022-12-04T16:23:43.791Z,19.85
2022-12-04T16:26:14.749Z,19.05
2022-12-04T16:28:41.719Z,17.77
2022-12-04T16:31:11.033Z,18.77
2022-12-04T16:36:05.079Z,18.38
2022-12-04T16:38:31.486Z,18.40
2022-12-04T16:40:57.994Z,16.40
2022-12-04T16:43:24.364Z,18.20
2022-12-04T16:45:54.471Z,19.15
2022-12-04T16:48:20.994Z,18.20
2022-12-04T16:50:47.791Z,19.95
2022-12-04T16:53:22.495Z,18.25
2022-12-04T16:55:50.695Z,17.42
2022-12-04T16:58:18.022Z,18.67
2022-12-04T17:00:49.303Z,18.67
2022-12-04T17:03:23.829Z,19.13
2022-12-04T17:05:50.421Z,17.45
2022-12-04T17:08:16.978Z,18.17
2022-12-04T17:10:43.471Z,18.73
2022-12-04T17:13:09.888Z,17.88
2022-12-04T17:15:36.318Z,18.85
2022-12-04T17:18:08.978Z,17.58
2022-12-04T17:20:40.470Z,18.40
2022-12-04T17:23:06.858Z,18.42
2022-12-04T17:25:33.341Z,18.20
2022-12-04T17:28:00.842Z,18.90
2022-12-04T17:30:31.377Z,17.38
2022-12-04T17:33:00.985Z,19.23
2022-12-04T17:35:27.405Z,19.42
2022-12-04T17:37:53.785Z,18.00
2022-12-04T17:40:20.266Z,17.83
2022-12-04T17:42:46.709Z,18.75
2022-12-04T17:45:14.268Z,18.73
2022-12-04T17:47:40.864Z,19.70
2022-12-04T17:50:07.962Z,17.40
2022-12-04T17:52:34.349Z,19.38
2022-12-04T17:55:00.828Z,19.77
2022-12-04T17:57:27.817Z,18.63
2022-12-04T17:59:54.543Z,19.75
2022-12-04T18:02:21.023Z,19.95
2022-12-04T18:04:47.455Z,20.77
2022-12-04T18:07:13.893Z,18.52
2022-12-04T18:09:40.304Z,19.67
2022-12-04T18:12:06.717Z,18.90
2022-12-04T18:14:35.056Z,20.63
2022-12-04T18:17:02.647Z,21.07
2022-12-04T18:19:30.018Z,19.42
2022-12-04T18:21:56.849Z,19.85
2022-12-04T18:24:24.293Z,19.83
2022-12-04T18:26:51.072Z,19.90
2022-12-04T18:29:23.594Z,21.70
2022-12-04T18:31:51.016Z,19.70
2022-12-04T18:34:19.397Z,22.17
2022-12-04T18:36:46.023Z,21.42
2022-12-04T18:39:14.996Z,21.15
2022-12-04T18:41:41.885Z,22.92
2022-12-04T18:44:08.569Z,20.75
2022-12-04T18:46:35.508Z,19.83
2022-12-04T18:49:02.126Z,18.40
2022-12-04T18:51:34.435Z,20.67
2022-12-04T18:54:06.534Z,19.15
2022-12-04T18:56:35.155Z,19.90
2022-12-04T18:59:09.929Z,19.80
2022-12-04T19:01:36.485Z,20.80
2022-12-04T19:04:05.477Z,20.27
2022-12-04T19:06:34.174Z,21.55
2022-12-04T19:09:04.198Z,22.35
2022-12-04T19:11:30.946Z,22.05
2022-12-04T19:13:58.324Z,21.95
2022-12-04T19:16:25.415Z,20.58
2022-12-04T19:18:51.991Z,21.23
2022-12-04T19:21:18.393Z,24.75
2022-12-04T19:23:51.016Z,23.63
2022-12-04T19:26:18.119Z,22.38
2022-12-04T19:28:44.744Z,23.83
2022-12-04T19:31:19.321Z,24.48
2022-12-04T19:33:45.841Z,22.95
2022-12-04T19:36:13.647Z,21.48
2022-12-04T19:38:40.687Z,22.60
2022-12-04T19:41:14.120Z,21.70
2022-12-04T19:43:43.124Z,21.23
2022-12-04T19:46:10.915Z,21.70
2022-12-04T19:48:37.929Z,21.42
2022-12-04T19:51:06.704Z,21.25
2022-12-04T19:53:37.739Z,20.83
2022-12-04T19:56:15.809Z,21.60
2022-12-04T19:58:42.482Z,21.23
2022-12-04T20:01:12.807Z,23.55
2022-12-04T20:03:39.509Z,25.33
2022-12-04T20:06:08.771Z,22.85
2022-12-04T20:08:35.356Z,23.35
2022-12-04T20:11:11.609Z,23.70
2022-12-04T20:13:41.762Z,21.42
2022-12-04T20:16:10.571Z,23.05
2022-12-04T20:18:38.892Z,22.27
2022-12-04T20:21:10.837Z,21.83
2022-12-04T20:23:38.367Z,24.58
2022-12-04T20:26:09.725Z,21.23
2022-12-04T20:28:36.706Z,20.30
2022-12-04T20:31:13.942Z,21.00
2022-12-04T20:33:41.157Z,21.13
2022-12-04T20:36:08.853Z,22.48
2022-12-04T20:38:35.419Z,20.27
2022-12-04T20:41:03.420Z,20.45
2022-12-04T20:43:29.897Z,20.45
2022-12-04T20:45:56.636Z,22.33
2022-12-04T20:48:23.145Z,23.55
2022-12-04T20:50:49.549Z,22.77
2022-12-04T20:53:15.976Z,22.38
2022-12-04T20:55:42.381Z,22.35
2022-12-04T20:58:08.754Z,20.25
2022-12-04T21:00:35.216Z,21.85
2022-12-04T21:03:01.704Z,22.45
2022-12-04T21:05:28.220Z,20.95
2022-12-04T21:07:54.677Z,22.48
2022-12-04T21:10:21.147Z,23.13
2022-12-04T21:13:06.146Z,23.75
2022-12-04T21:15:51.278Z,21.60
2022-12-04T21:18:17.803Z,22.67
2022-12-04T21:20:44.242Z,21.67
2022-12-04T21:23:10.820Z,22.17
2022-12-04T21:25:37.228Z,21.83
2022-12-04T21:28:03.613Z,21.60
2022-12-04T21:30:30.152Z,22.45
2022-12-04T21:32:56.542Z,23.02
2022-12-04T21:35:22.978Z,21.20
2022-12-04T21:37:49.431Z,21.23
2022-12-04T21:40:15.969Z,20.75
2022-12-04T21:42:43.871Z,22.73
2022-12-04T21:45:10.586Z,22.05
2022-12-04T21:47:37.460Z,21.58
2022-12-04T21:50:05.406Z,22.15
2022-12-04T21:52:35.697Z,22.90
2022-12-04T21:55:02.098Z,21.55
2022-12-04T21:57:29.023Z,21.48
2022-12-04T21:59:55.537Z,22.95
2022-12-04T22:02:22.163Z,22.77
2022-12-04T22:04:48.663Z,22.40
2022-12-04T22:07:15.555Z,22.05
2022-12-04T22:09:41.976Z,22.30
2022-12-04T22:12:33.117Z,21.77
2022-12-04T22:14:54.794Z,22.30
2022-12-04T22:17:21.202Z,22.35
2022-12-04T22:19:47.640Z,23.30
2022-12-04T22:22:14.088Z,22.10
2022-12-04T22:24:41.606Z,22.60
2022-12-04T22:27:14.695Z,22.42
2022-12-04T22:29:50.198Z,22.48
2022-12-04T22:32:27.520Z,21.40
2022-12-04T22:34:53.933Z,21.77
2022-12-04T22:37:20.394Z,22.73
2022-12-04T22:39:46.778Z,21.45
2022-12-04T22:42:13.264Z,20.65
2022-12-04T22:44:39.704Z,22.85
2022-12-04T22:47:06.152Z,22.33
2022-12-04T22:49:32.675Z,23.33
2022-12-04T22:51:59.185Z,20.60
